createdAt,value
2023-02-08T00:00:16.615Z,-3.67
2023-02-08T00:05:18.780Z,-3.64
2023-02-08T00:10:20.492Z,-3.70
2023-02-08T00:15:22.500Z,-3.74
2023-02-08T00:20:24.166Z,-3.81
2023-02-08T00:25:25.813Z,-3.88
2023-02-08T00:30:27.735Z,-3.96
2023-02-08T00:35:29.714Z,-3.96
2023-02-08T00:40:31.775Z,-3.97
2023-02-08T00:45:34.099Z,-4.00
2023-02-08T00:50:35.790Z,-4.06
2023-02-08T00:55:38.074Z,-4.11
2023-02-08T01:00:40.094Z,-4.11
2023-02-08T01:05:42.090Z,-4.12
2023-02-08T01:10:44.709Z,-4.09
2023-02-08T01:15:46.386Z,-4.08
2023-02-08T01:20:48.062Z,-4.11
2023-02-08T01:25:49.716Z,-4.04
2023-02-08T01:30:52.272Z,-4.06
2023-02-08T01:35:54.037Z,-4.03
2023-02-08T01:40:55.704Z,-3.96
2023-02-08T01:45:57.801Z,-3.83
2023-02-08T01:51:10.685Z,-3.77
2023-02-08T01:56:19.635Z,-3.62
2023-02-08T02:01:21.833Z,-3.56
2023-02-08T02:06:33.100Z,-3.50
2023-02-08T02:11:34.966Z,-3.47
2023-02-08T02:16:37.057Z,-3.43
2023-02-08T02:21:54.100Z,-3.43
2023-02-08T02:27:24.792Z,-3.37
2023-02-08T02:32:38.550Z,-3.32
2023-02-08T02:37:43.784Z,-3.28
2023-02-08T02:43:17.174Z,-3.23
2023-02-08T02:48:26.184Z,-3.20
2023-02-08T02:53:56.471Z,-3.19
2023-02-08T02:59:04.102Z,-3.23
2023-02-08T03:04:40.163Z,-3.27
2023-02-08T03:10:07.696Z,-3.28
2023-02-08T03:15:29.978Z,-3.24
2023-02-08T03:20:53.620Z,-3.23
2023-02-08T03:26:21.003Z,-3.19
2023-02-08T03:31:43.269Z,-3.16
2023-02-08T03:36:53.288Z,-3.06
2023-02-08T03:42:07.036Z,-3.01
2023-02-08T03:47:15.797Z,-2.95
2023-02-08T03:52:18.950Z,-2.86
2023-02-08T03:57:24.104Z,-2.82
2023-02-08T04:02:29.660Z,-2.82
2023-02-08T04:07:31.575Z,-3.12
2023-02-08T04:12:33.222Z,-3.54
2023-02-08T04:17:34.916Z,-3.76
2023-02-08T04:22:36.769Z,-3.75
2023-02-08T04:27:38.632Z,-3.75
2023-02-08T04:32:40.310Z,-3.66
2023-02-08T04:37:41.906Z,-3.49
2023-02-08T04:42:43.625Z,-3.34
2023-02-08T04:47:45.275Z,-3.28
2023-02-08T04:52:46.911Z,-3.13
2023-02-08T04:57:49.771Z,-3.11
2023-02-08T05:02:55.839Z,-3.15
2023-02-08T05:07:57.486Z,-3.23
2023-02-08T05:12:59.853Z,-3.33
2023-02-08T05:18:01.427Z,-3.40
2023-02-08T05:23:03.055Z,-3.47
2023-02-08T05:28:05.711Z,-3.53
2023-02-08T05:33:07.531Z,-3.57
2023-02-08T05:38:09.168Z,-3.58
2023-02-08T05:43:10.834Z,-3.63
2023-02-08T05:48:12.524Z,-3.63
2023-02-08T05:53:14.359Z,-3.63
2023-02-08T05:58:17.006Z,-3.64
2023-02-08T06:03:18.693Z,-3.64
2023-02-08T06:08:20.708Z,-3.71
2023-02-08T06:13:22.392Z,-3.75
2023-02-08T06:18:24.244Z,-3.79
2023-02-08T06:23:26.240Z,-3.61
2023-02-08T06:28:28.027Z,-2.61
2023-02-08T06:33:30.268Z,-2.28
2023-02-08T06:38:32.050Z,-2.22
2023-02-08T06:43:33.843Z,-2.22
2023-02-08T06:48:35.924Z,-2.27
2023-02-08T06:53:37.783Z,-2.23
2023-02-08T06:58:39.764Z,-2.66
2023-02-08T07:03:42.038Z,-2.93
2023-02-08T07:08:43.765Z,-3.12
2023-02-08T07:13:52.107Z,-3.22
2023-02-08T07:18:53.835Z,-3.19
2023-02-08T07:23:55.471Z,-3.14
2023-02-08T07:28:58.589Z,-3.06
2023-02-08T07:34:00.383Z,-2.98
2023-02-08T07:39:02.863Z,-2.94
2023-02-08T07:44:04.805Z,-2.86
2023-02-08T07:49:06.858Z,-2.78
2023-02-08T07:54:08.597Z,-2.69
2023-02-08T07:59:10.836Z,-2.61
2023-02-08T08:04:12.721Z,-2.54
2023-02-08T08:09:15.385Z,-2.41
2023-02-08T08:14:17.218Z,-2.32
2023-02-08T08:19:18.898Z,-2.22
2023-02-08T08:24:20.596Z,-2.12
2023-02-08T08:29:22.302Z,-2.00
2023-02-08T08:34:29.704Z,-1.88
2023-02-08T08:39:32.099Z,-1.73
2023-02-08T08:44:33.872Z,-1.62
2023-02-08T08:49:35.717Z,-1.49
2023-02-08T08:54:37.396Z,-1.38
2023-02-08T08:59:39.342Z,-1.28
2023-02-08T09:04:41.536Z,-1.16
2023-02-08T09:09:47.878Z,-1.03
2023-02-08T09:14:49.523Z,-0.95
2023-02-08T09:19:51.314Z,-0.82
2023-02-08T09:24:53.856Z,-0.65
2023-02-08T09:29:55.565Z,-0.53
2023-02-08T09:34:57.740Z,-0.44
2023-02-08T09:40:00.249Z,-0.33
2023-02-08T09:45:02.256Z,-0.16
2023-02-08T09:50:12.749Z,-0.11
2023-02-08T09:55:49.799Z,0.00
2023-02-08T10:00:53.360Z,0.13
2023-02-08T10:05:55.409Z,0.26
2023-02-08T10:11:09.298Z,0.36
2023-02-08T10:16:23.753Z,0.50
2023-02-08T10:21:43.289Z,0.56
2023-02-08T10:27:01.373Z,0.61
2023-02-08T10:32:18.192Z,0.73
2023-02-08T10:37:27.698Z,0.88
2023-02-08T10:42:32.080Z,0.95
2023-02-08T10:47:44.168Z,0.98
2023-02-08T10:52:45.955Z,0.99
2023-02-08T10:57:50.037Z,0.93
2023-02-08T11:02:53.016Z,0.98
2023-02-08T11:08:14.063Z,1.02
2023-02-08T11:13:20.437Z,1.11
2023-02-08T11:18:37.908Z,1.28
2023-02-08T11:23:43.418Z,1.26
2023-02-08T11:29:18.516Z,1.33
2023-02-08T11:34:28.572Z,1.33
2023-02-08T11:39:35.306Z,1.37
2023-02-08T11:44:43.040Z,1.52
2023-02-08T11:49:56.257Z,1.69
2023-02-08T11:55:16.796Z,1.79
2023-02-08T12:00:21.419Z,1.93
2023-02-08T12:05:46.694Z,2.02
2023-02-08T12:11:14.895Z,2.16
2023-02-08T12:16:50.916Z,2.37
2023-02-08T12:22:07.956Z,2.30
2023-02-08T12:27:34.371Z,2.18
2023-02-08T12:32:46.707Z,2.20
2023-02-08T12:38:31.322Z,2.51
2023-02-08T12:43:51.762Z,2.72
2023-02-08T12:49:30.989Z,2.67
2023-02-08T12:55:06.325Z,2.80
2023-02-08T13:00:19.382Z,2.84
2023-02-08T13:05:22.936Z,2.81
2023-02-08T13:10:39.254Z,2.86
2023-02-08T13:16:10.167Z,3.10
2023-02-08T13:21:16.377Z,3.11
2023-02-08T13:26:28.026Z,2.93
2023-02-08T13:31:39.460Z,3.01
2023-02-08T13:36:51.389Z,3.11
2023-02-08T13:41:56.352Z,3.09
2023-02-08T13:46:58.501Z,2.96
2023-02-08T13:52:02.218Z,2.70
2023-02-08T13:57:25.852Z,2.62
2023-02-08T14:02:28.990Z,2.75
2023-02-08T14:07:42.295Z,2.83
2023-02-08T14:12:56.763Z,2.80
2023-02-08T14:18:00.654Z,2.73
2023-02-08T14:23:06.815Z,2.64
2023-02-08T14:28:35.723Z,2.65
2023-02-08T14:33:41.307Z,2.69
2023-02-08T14:38:53.725Z,2.61
2023-02-08T14:43:55.545Z,2.55
2023-02-08T14:48:57.808Z,2.51
2023-02-08T14:54:15.147Z,2.42
2023-02-08T14:59:20.762Z,2.34
2023-02-08T15:04:22.583Z,2.23
2023-02-08T15:09:30.125Z,2.18
2023-02-08T15:14:36.193Z,2.10
2023-02-08T15:19:39.404Z,2.06
2023-02-08T15:24:50.460Z,2.06
2023-02-08T15:29:52.521Z,2.02
2023-02-08T15:35:00.729Z,1.99
2023-02-08T15:40:04.606Z,1.88
2023-02-08T15:45:23.474Z,1.77
2023-02-08T15:50:27.750Z,1.70
2023-02-08T15:55:39.813Z,1.64
2023-02-08T16:00:43.432Z,1.57
2023-02-08T16:05:54.899Z,1.50
2023-02-08T16:10:59.442Z,1.47
2023-02-08T16:16:53.653Z,1.44
2023-02-08T16:22:14.610Z,1.38
2023-02-08T16:27:25.943Z,1.34
2023-02-08T16:32:33.470Z,1.31
2023-02-08T16:37:35.484Z,1.27
2023-02-08T16:42:42.637Z,1.16
2023-02-08T16:47:48.548Z,1.07
2023-02-08T16:52:58.978Z,1.01
2023-02-08T16:58:00.650Z,0.91
2023-02-08T17:03:02.429Z,0.85
2023-02-08T17:08:09.936Z,0.82
2023-02-08T17:13:21.023Z,0.77
2023-02-08T17:18:23.148Z,0.73
2023-02-08T17:23:25.414Z,0.58
2023-02-08T17:28:27.674Z,0.47
2023-02-08T17:33:29.377Z,0.45
2023-02-08T17:38:31.021Z,0.32
2023-02-08T17:43:32.974Z,0.13
2023-02-08T17:48:34.679Z,0.04
2023-02-08T17:53:40.853Z,0.03
2023-02-08T17:58:42.973Z,0.01
2023-02-08T18:03:45.686Z,-0.10
2023-02-08T18:08:47.306Z,-0.17
2023-02-08T18:13:51.556Z,-0.21
2023-02-08T18:18:57.542Z,-0.28
2023-02-08T18:24:04.829Z,-0.30
2023-02-08T18:29:06.531Z,-0.29
2023-02-08T18:34:08.129Z,-0.33
2023-02-08T18:39:13.970Z,-0.37
2023-02-08T18:44:16.614Z,-0.41
2023-02-08T18:49:18.272Z,-0.45
2023-02-08T18:54:19.977Z,-0.55
2023-02-08T18:59:21.858Z,-0.66
2023-02-08T19:04:23.546Z,-0.71
2023-02-08T19:09:25.237Z,-0.76
2023-02-08T19:14:26.834Z,-0.86
2023-02-08T19:19:28.482Z,-0.92
2023-02-08T19:24:30.338Z,-0.96
2023-02-08T19:29:33.467Z,-0.98
2023-02-08T19:34:35.071Z,-1.02
2023-02-08T19:39:36.876Z,-1.10
2023-02-08T19:44:38.513Z,-1.15
2023-02-08T19:49:40.136Z,-1.18
2023-02-08T19:54:41.818Z,-1.18
2023-02-08T19:59:43.852Z,-1.13
2023-02-08T20:04:45.687Z,-1.11
2023-02-08T20:09:47.334Z,-1.08
2023-02-08T20:14:48.965Z,-1.09
2023-02-08T20:19:52.393Z,-1.06
2023-02-08T20:24:54.092Z,-1.05
2023-02-08T20:29:56.063Z,-1.06
2023-02-08T20:34:59.836Z,-1.10
2023-02-08T20:40:02.602Z,-1.13
2023-02-08T20:45:06.057Z,-1.12
2023-02-08T20:50:18.156Z,-1.11
2023-02-08T20:55:21.380Z,-1.17
2023-02-08T21:00:27.960Z,-1.21
2023-02-08T21:05:35.152Z,-1.24
2023-02-08T21:10:37.138Z,-1.22
2023-02-08T21:15:43.155Z,-1.26
2023-02-08T21:20:45.036Z,-1.32
2023-02-08T21:25:46.871Z,-1.35
2023-02-08T21:31:11.079Z,-1.39
2023-02-08T21:36:18.745Z,-1.62
2023-02-08T21:41:23.770Z,-1.72
2023-02-08T21:46:27.712Z,-1.77
2023-02-08T21:51:50.427Z,-2.00
2023-02-08T21:56:52.294Z,-2.06
2023-02-08T22:01:54.049Z,-2.02
2023-02-08T22:06:55.870Z,-2.01
2023-02-08T22:11:57.667Z,-2.08
2023-02-08T22:16:59.427Z,-2.19
2023-02-08T22:22:02.298Z,-2.34
2023-02-08T22:27:05.560Z,-2.40
2023-02-08T22:32:09.811Z,-2.46
2023-02-08T22:37:12.154Z,-2.55
2023-02-08T22:42:14.656Z,-2.61
2023-02-08T22:47:17.187Z,-2.68
2023-02-08T22:52:19.684Z,-2.75
2023-02-08T22:57:22.057Z,-2.98
2023-02-08T23:02:24.437Z,-3.04
2023-02-08T23:07:27.201Z,-3.05
2023-02-08T23:12:29.718Z,-3.02
2023-02-08T23:17:31.505Z,-3.01
2023-02-08T23:22:37.541Z,-2.96
2023-02-08T23:27:39.427Z,-3.04
2023-02-08T23:32:41.646Z,-3.14
2023-02-08T23:37:45.118Z,-3.29
2023-02-08T23:42:47.281Z,-3.33
2023-02-08T23:47:49.085Z,-3.36
2023-02-08T23:52:50.925Z,-3.43
2023-02-08T23:57:52.630Z,-3.50
